sensor_id;sensor_type;location;lat;lon;timestamp;pressure;altitude;pressure_sealevel;temperature;humidity
15568;BME280;7885;42.596;23.044;2023-07-13T00:01:16;93308.25;;;20.36;91.11
15568;BME280;7885;42.596;23.044;2023-07-13T00:03:43;93351.66;;;20.48;91.52
15568;BME280;7885;42.596;23.044;2023-07-13T00:06:11;93345.72;;;20.37;92.23
15568;BME280;7885;42.596;23.044;2023-07-13T00:08:38;93312.88;;;20.14;93.36
15568;BME280;7885;42.596;23.044;2023-07-13T00:11:05;93335.66;;;20.31;92.68
15568;BME280;7885;42.596;23.044;2023-07-13T00:13:32;93314.00;;;20.16;92.29
15568;BME280;7885;42.596;23.044;2023-07-13T00:15:59;93300.09;;;20.07;92.60
15568;BME280;7885;42.596;23.044;2023-07-13T00:18:26;93320.06;;;20.24;92.44
15568;BME280;7885;42.596;23.044;2023-07-13T00:20:55;93330.91;;;20.31;91.98
15568;BME280;7885;42.596;23.044;2023-07-13T00:23:32;93327.81;;;20.29;92.60
15568;BME280;7885;42.596;23.044;2023-07-13T00:26:00;93324.16;;;20.32;91.51
15568;BME280;7885;42.596;23.044;2023-07-13T00:28:27;93321.72;;;20.22;91.92
15568;BME280;7885;42.596;23.044;2023-07-13T00:30:54;93320.28;;;20.17;92.71
15568;BME280;7885;42.596;23.044;2023-07-13T00:33:21;93322.81;;;20.24;93.14
15568;BME280;7885;42.596;23.044;2023-07-13T00:35:48;93328.03;;;20.22;93.32
15568;BME280;7885;42.596;23.044;2023-07-13T00:38:15;93316.56;;;20.11;93.26
15568;BME280;7885;42.596;23.044;2023-07-13T00:40:43;93323.50;;;20.15;95.17
15568;BME280;7885;42.596;23.044;2023-07-13T00:43:12;93290.94;;;19.98;94.60
15568;BME280;7885;42.596;23.044;2023-07-13T00:48:55;93313.25;;;20.16;94.17
15568;BME280;7885;42.596;23.044;2023-07-13T00:51:28;93314.75;;;20.17;94.75
15568;BME280;7885;42.596;23.044;2023-07-13T00:53:59;93321.59;;;20.25;95.08
15568;BME280;7885;42.596;23.044;2023-07-13T00:56:28;93317.63;;;20.26;95.25
15568;BME280;7885;42.596;23.044;2023-07-13T00:58:56;93308.38;;;20.20;94.77
15568;BME280;7885;42.596;23.044;2023-07-13T01:01:24;93321.28;;;20.23;93.83
15568;BME280;7885;42.596;23.044;2023-07-13T01:03:51;93304.59;;;20.14;94.34
15568;BME280;7885;42.596;23.044;2023-07-13T01:06:19;93318.66;;;20.20;96.21
15568;BME280;7885;42.596;23.044;2023-07-13T01:08:46;93317.22;;;20.15;95.83
15568;BME280;7885;42.596;23.044;2023-07-13T01:11:18;93317.56;;;20.04;95.23
15568;BME280;7885;42.596;23.044;2023-07-13T01:13:48;93327.84;;;20.04;95.95
15568;BME280;7885;42.596;23.044;2023-07-13T01:16:20;93315.59;;;19.80;96.25
15568;BME280;7885;42.596;23.044;2023-07-13T01:18:48;93323.31;;;19.72;97.42
15568;BME280;7885;42.596;23.044;2023-07-13T01:21:17;93318.78;;;19.65;98.46
15568;BME280;7885;42.596;23.044;2023-07-13T01:23:44;93312.63;;;19.49;97.47
15568;BME280;7885;42.596;23.044;2023-07-13T01:26:11;93313.25;;;19.40;99.61
15568;BME280;7885;42.596;23.044;2023-07-13T01:28:38;93319.13;;;19.42;100.00
15568;BME280;7885;42.596;23.044;2023-07-13T01:31:05;93318.00;;;19.40;100.00
15568;BME280;7885;42.596;23.044;2023-07-13T01:33:31;93303.09;;;19.37;100.00
15568;BME280;7885;42.596;23.044;2023-07-13T01:35:59;93310.84;;;19.42;100.00
15568;BME280;7885;42.596;23.044;2023-07-13T01:38:29;93301.34;;;19.43;100.00
15568;BME280;7885;42.596;23.044;2023-07-13T01:40:55;93295.84;;;19.43;99.77
15568;BME280;7885;42.596;23.044;2023-07-13T01:43:22;93295.63;;;19.50;98.83
15568;BME280;7885;42.596;23.044;2023-07-13T01:45:49;93290.31;;;19.43;98.42
15568;BME280;7885;42.596;23.044;2023-07-13T01:48:16;93294.28;;;19.42;99.19
15568;BME280;7885;42.596;23.044;2023-07-13T01:50:42;93300.47;;;19.46;99.05
15568;BME280;7885;42.596;23.044;2023-07-13T01:53:09;93290.31;;;19.43;98.96
15568;BME280;7885;42.596;23.044;2023-07-13T01:55:37;93298.25;;;19.41;98.10
15568;BME280;7885;42.596;23.044;2023-07-13T01:58:04;93298.91;;;19.45;98.23
15568;BME280;7885;42.596;23.044;2023-07-13T02:00:32;93310.53;;;19.53;97.80
15568;BME280;7885;42.596;23.044;2023-07-13T02:02:59;93278.78;;;19.32;99.56
15568;BME280;7885;42.596;23.044;2023-07-13T02:05:26;93312.19;;;19.50;98.25
15568;BME280;7885;42.596;23.044;2023-07-13T02:07:52;93280.56;;;19.26;97.49
15568;BME280;7885;42.596;23.044;2023-07-13T02:10:19;93294.75;;;19.41;96.60
15568;BME280;7885;42.596;23.044;2023-07-13T02:12:48;93303.09;;;19.37;97.83
15568;BME280;7885;42.596;23.044;2023-07-13T02:15:15;93279.78;;;19.13;98.41
15568;BME280;7885;42.596;23.044;2023-07-13T02:17:42;93304.06;;;19.31;98.99
15568;BME280;7885;42.596;23.044;2023-07-13T02:20:09;93308.06;;;19.30;99.76
15568;BME280;7885;42.596;23.044;2023-07-13T02:22:36;93307.28;;;19.29;100.00
15568;BME280;7885;42.596;23.044;2023-07-13T02:25:03;93286.59;;;19.21;100.00
15568;BME280;7885;42.596;23.044;2023-07-13T02:27:31;93307.72;;;19.40;100.00
15568;BME280;7885;42.596;23.044;2023-07-13T02:29:59;93309.28;;;19.41;100.00
15568;BME280;7885;42.596;23.044;2023-07-13T02:32:26;93294.81;;;19.37;100.00
15568;BME280;7885;42.596;23.044;2023-07-13T02:34:53;93265.78;;;19.20;99.10
15568;BME280;7885;42.596;23.044;2023-07-13T02:37:20;93291.88;;;19.44;98.70
15568;BME280;7885;42.596;23.044;2023-07-13T02:39:47;93300.88;;;19.32;98.62
15568;BME280;7885;42.596;23.044;2023-07-13T02:45:37;93311.25;;;19.28;100.00
15568;BME280;7885;42.596;23.044;2023-07-13T02:48:05;93312.59;;;19.36;100.00
15568;BME280;7885;42.596;23.044;2023-07-13T02:50:31;93310.16;;;19.38;100.00
15568;BME280;7885;42.596;23.044;2023-07-13T02:52:58;93314.88;;;19.38;100.00
15568;BME280;7885;42.596;23.044;2023-07-13T02:55:25;93315.34;;;19.36;100.00
15568;BME280;7885;42.596;23.044;2023-07-13T02:57:51;93324.50;;;19.33;100.00
15568;BME280;7885;42.596;23.044;2023-07-13T03:00:20;93320.19;;;19.32;100.00
15568;BME280;7885;42.596;23.044;2023-07-13T03:02:48;93324.41;;;19.37;100.00
15568;BME280;7885;42.596;23.044;2023-07-13T03:05:16;93312.59;;;19.36;100.00
15568;BME280;7885;42.596;23.044;2023-07-13T03:07:42;93323.84;;;19.29;100.00
15568;BME280;7885;42.596;23.044;2023-07-13T03:10:09;93317.09;;;19.30;100.00
15568;BME280;7885;42.596;23.044;2023-07-13T03:12:36;93314.34;;;19.30;100.00
15568;BME280;7885;42.596;23.044;2023-07-13T03:15:03;93323.84;;;19.29;100.00
15568;BME280;7885;42.596;23.044;2023-07-13T03:17:30;93311.91;;;19.20;100.00
15568;BME280;7885;42.596;23.044;2023-07-13T03:19:58;93299.94;;;19.10;100.00
15568;BME280;7885;42.596;23.044;2023-07-13T03:22:25;93314.41;;;19.14;100.00
15568;BME280;7885;42.596;23.044;2023-07-13T03:24:52;93318.50;;;19.09;100.00
15568;BME280;7885;42.596;23.044;2023-07-13T03:27:18;93307.22;;;19.04;100.00
15568;BME280;7885;42.596;23.044;2023-07-13T03:29:45;93325.13;;;19.12;100.00
15568;BME280;7885;42.596;23.044;2023-07-13T03:32:12;93325.81;;;19.16;100.00
15568;BME280;7885;42.596;23.044;2023-07-13T03:34:39;93330.81;;;19.34;100.00
15568;BME280;7885;42.596;23.044;2023-07-13T03:37:07;93334.13;;;19.41;100.00
15568;BME280;7885;42.596;23.044;2023-07-13T03:39:33;93324.09;;;19.47;100.00
15568;BME280;7885;42.596;23.044;2023-07-13T03:42:00;93325.63;;;19.48;100.00
15568;BME280;7885;42.596;23.044;2023-07-13T03:44:27;93328.63;;;19.54;100.00
15568;BME280;7885;42.596;23.044;2023-07-13T03:46:54;93289.72;;;19.23;100.00
15568;BME280;7885;42.596;23.044;2023-07-13T03:49:20;93326.31;;;19.52;100.00
15568;BME280;7885;42.596;23.044;2023-07-13T03:51:47;93333.38;;;19.53;100.00
15568;BME280;7885;42.596;23.044;2023-07-13T03:54:15;93325.88;;;19.54;100.00
15568;BME280;7885;42.596;23.044;2023-07-13T03:56:42;93331.63;;;19.59;100.00
15568;BME280;7885;42.596;23.044;2023-07-13T03:59:09;93318.38;;;19.54;100.00
15568;BME280;7885;42.596;23.044;2023-07-13T04:01:35;93314.94;;;19.63;100.00
15568;BME280;7885;42.596;23.044;2023-07-13T04:04:02;93317.94;;;19.69;100.00
15568;BME280;7885;42.596;23.044;2023-07-13T04:06:30;93327.50;;;19.89;100.00
15568;BME280;7885;42.596;23.044;2023-07-13T04:08:58;93330.63;;;19.91;100.00
15568;BME280;7885;42.596;23.044;2023-07-13T04:11:28;93328.94;;;19.94;100.00
15568;BME280;7885;42.596;23.044;2023-07-13T04:13:56;93331.84;;;20.03;100.00
15568;BME280;7885;42.596;23.044;2023-07-13T04:16:23;93329.16;;;20.12;100.00
15568;BME280;7885;42.596;23.044;2023-07-13T04:18:51;93314.31;;;20.18;100.00
15568;BME280;7885;42.596;23.044;2023-07-13T04:21:20;93323.84;;;20.30;100.00
15568;BME280;7885;42.596;23.044;2023-07-13T04:23:47;93322.28;;;20.29;100.00
15568;BME280;7885;42.596;23.044;2023-07-13T04:26:14;93326.13;;;20.44;100.00
15568;BME280;7885;42.596;23.044;2023-07-13T04:28:42;93310.88;;;20.40;100.00
15568;BME280;7885;42.596;23.044;2023-07-13T04:31:09;93332.41;;;20.57;99.83
15568;BME280;7885;42.596;23.044;2023-07-13T04:33:35;93326.09;;;20.57;99.58
15568;BME280;7885;42.596;23.044;2023-07-13T04:39:42;93335.56;;;20.69;98.48
15568;BME280;7885;42.596;23.044;2023-07-13T04:42:09;93335.50;;;20.81;98.82
15568;BME280;7885;42.596;23.044;2023-07-13T04:44:37;93348.00;;;20.86;97.58
15568;BME280;7885;42.596;23.044;2023-07-13T04:47:05;93348.63;;;20.90;98.16
15568;BME280;7885;42.596;23.044;2023-07-13T04:49:31;93344.66;;;20.91;97.66
15568;BME280;7885;42.596;23.044;2023-07-13T04:51:58;93333.19;;;20.80;97.73
15568;BME280;7885;42.596;23.044;2023-07-13T04:54:25;93371.03;;;21.04;96.13
15568;BME280;7885;42.596;23.044;2023-07-13T04:56:52;93360.34;;;20.94;96.34
15568;BME280;7885;42.596;23.044;2023-07-13T04:59:18;93360.69;;;20.96;96.52
15568;BME280;7885;42.596;23.044;2023-07-13T05:01:47;93364.41;;;21.02;96.52
15568;BME280;7885;42.596;23.044;2023-07-13T05:04:13;93364.50;;;21.11;95.82
15568;BME280;7885;42.596;23.044;2023-07-13T05:06:40;93372.25;;;21.16;95.73
15568;BME280;7885;42.596;23.044;2023-07-13T05:09:07;93367.66;;;21.22;94.72
15568;BME280;7885;42.596;23.044;2023-07-13T05:11:34;93360.00;;;21.26;94.43
15568;BME280;7885;42.596;23.044;2023-07-13T05:14:00;93380.66;;;21.34;94.50
15568;BME280;7885;42.596;23.044;2023-07-13T05:16:27;93360.84;;;21.36;94.13
15568;BME280;7885;42.596;23.044;2023-07-13T05:18:55;93361.66;;;21.45;94.12
15568;BME280;7885;42.596;23.044;2023-07-13T05:21:22;93379.59;;;21.62;93.50
15568;BME280;7885;42.596;23.044;2023-07-13T05:23:49;93359.56;;;21.58;92.88
15568;BME280;7885;42.596;23.044;2023-07-13T05:26:16;93350.38;;;21.61;92.81
15568;BME280;7885;42.596;23.044;2023-07-13T05:28:43;93371.13;;;21.88;94.15
15568;BME280;7885;42.596;23.044;2023-07-13T05:31:10;93372.75;;;22.07;94.22
15568;BME280;7885;42.596;23.044;2023-07-13T05:33:37;93381.13;;;22.16;92.33
15568;BME280;7885;42.596;23.044;2023-07-13T05:36:05;93391.03;;;22.26;91.61
15568;BME280;7885;42.596;23.044;2023-07-13T05:38:32;93363.88;;;22.12;90.84
15568;BME280;7885;42.596;23.044;2023-07-13T05:41:00;93408.91;;;22.34;91.46
15568;BME280;7885;42.596;23.044;2023-07-13T05:43:26;93380.06;;;22.23;91.68
15568;BME280;7885;42.596;23.044;2023-07-13T05:45:56;93396.91;;;22.37;91.37
15568;BME280;7885;42.596;23.044;2023-07-13T05:48:23;93395.38;;;22.45;91.25
15568;BME280;7885;42.596;23.044;2023-07-13T05:50:50;93392.94;;;22.56;90.82
15568;BME280;7885;42.596;23.044;2023-07-13T05:53:18;93393.31;;;22.68;91.37
15568;BME280;7885;42.596;23.044;2023-07-13T05:55:46;93361.34;;;22.54;90.71
15568;BME280;7885;42.596;23.044;2023-07-13T05:58:16;93345.34;;;22.58;90.24
15568;BME280;7885;42.596;23.044;2023-07-13T06:00:43;93369.59;;;22.94;89.16
15568;BME280;7885;42.596;23.044;2023-07-13T06:03:10;93366.81;;;22.94;89.61
15568;BME280;7885;42.596;23.044;2023-07-13T06:05:38;93377.00;;;23.15;90.49
15568;BME280;7885;42.596;23.044;2023-07-13T06:08:05;93375.44;;;23.32;92.30
15568;BME280;7885;42.596;23.044;2023-07-13T06:10:34;93357.06;;;23.35;92.02
15568;BME280;7885;42.596;23.044;2023-07-13T06:13:00;93364.66;;;23.61;89.75
15568;BME280;7885;42.596;23.044;2023-07-13T06:15:28;93382.69;;;23.75;89.08
15568;BME280;7885;42.596;23.044;2023-07-13T06:17:55;93362.72;;;23.77;86.65
15568;BME280;7885;42.596;23.044;2023-07-13T06:20:22;93384.94;;;23.95;87.58
15568;BME280;7885;42.596;23.044;2023-07-13T06:22:49;93379.94;;;24.08;86.36
15568;BME280;7885;42.596;23.044;2023-07-13T06:25:16;93383.31;;;24.21;84.99
15568;BME280;7885;42.596;23.044;2023-07-13T06:27:45;93357.66;;;24.17;86.59
15568;BME280;7885;42.596;23.044;2023-07-13T06:30:12;93388.16;;;24.44;84.34
15568;BME280;7885;42.596;23.044;2023-07-13T06:32:39;93379.44;;;24.51;84.70
15568;BME280;7885;42.596;23.044;2023-07-13T06:35:06;93376.63;;;24.60;85.55
15568;BME280;7885;42.596;23.044;2023-07-13T06:37:33;93381.50;;;24.75;83.22
15568;BME280;7885;42.596;23.044;2023-07-13T06:39:59;93387.34;;;24.86;83.28
15568;BME280;7885;42.596;23.044;2023-07-13T06:42:26;93391.25;;;25.03;83.00
15568;BME280;7885;42.596;23.044;2023-07-13T06:44:56;93378.84;;;25.04;80.79
15568;BME280;7885;42.596;23.044;2023-07-13T06:47:22;93389.91;;;25.13;81.66
15568;BME280;7885;42.596;23.044;2023-07-13T06:49:49;93385.88;;;25.14;79.93
15568;BME280;7885;42.596;23.044;2023-07-13T06:52:16;93370.44;;;25.13;81.16
15568;BME280;7885;42.596;23.044;2023-07-13T06:54:43;93374.38;;;25.21;81.38
15568;BME280;7885;42.596;23.044;2023-07-13T06:57:09;93364.41;;;25.29;84.17
15568;BME280;7885;42.596;23.044;2023-07-13T06:59:36;93368.00;;;25.44;84.25
15568;BME280;7885;42.596;23.044;2023-07-13T07:02:05;93373.41;;;25.62;82.28
15568;BME280;7885;42.596;23.044;2023-07-13T07:04:32;93380.22;;;25.76;81.23
15568;BME280;7885;42.596;23.044;2023-07-13T07:06:59;93382.19;;;25.85;80.53
15568;BME280;7885;42.596;23.044;2023-07-13T07:09:26;93355.06;;;25.71;79.45
15568;BME280;7885;42.596;23.044;2023-07-13T07:11:54;93367.84;;;25.92;81.30
15568;BME280;7885;42.596;23.044;2023-07-13T07:14:21;93367.25;;;26.02;81.38
15568;BME280;7885;42.596;23.044;2023-07-13T07:16:49;93375.63;;;26.17;82.54
15568;BME280;7885;42.596;23.044;2023-07-13T07:19:17;93361.00;;;26.22;81.73
15568;BME280;7885;42.596;23.044;2023-07-13T07:21:44;93374.38;;;26.33;80.28
15568;BME280;7885;42.596;23.044;2023-07-13T07:24:24;93366.16;;;26.44;81.62
15568;BME280;7885;42.596;23.044;2023-07-13T07:26:51;93376.22;;;26.56;78.13
15568;BME280;7885;42.596;23.044;2023-07-13T07:29:18;93368.06;;;26.52;79.29
15568;BME280;7885;42.596;23.044;2023-07-13T07:31:45;93358.13;;;26.51;77.96
15568;BME280;7885;42.596;23.044;2023-07-13T07:34:11;93356.56;;;26.65;76.77
15568;BME280;7885;42.596;23.044;2023-07-13T07:36:39;93360.00;;;26.75;76.05
15568;BME280;7885;42.596;23.044;2023-07-13T07:39:06;93371.78;;;26.99;76.12
15568;BME280;7885;42.596;23.044;2023-07-13T07:41:33;93357.09;;;27.04;76.97
15568;BME280;7885;42.596;23.044;2023-07-13T07:44:00;93337.06;;;27.05;76.00
15568;BME280;7885;42.596;23.044;2023-07-13T07:46:27;93354.84;;;27.28;75.56
15568;BME280;7885;42.596;23.044;2023-07-13T07:48:53;93345.59;;;27.42;78.18
15568;BME280;7885;42.596;23.044;2023-07-13T07:51:20;93352.50;;;27.67;76.72
15568;BME280;7885;42.596;23.044;2023-07-13T07:53:48;93343.16;;;27.76;73.91
15568;BME280;7885;42.596;23.044;2023-07-13T07:56:15;93347.97;;;28.01;75.62
15568;BME280;7885;42.596;23.044;2023-07-13T07:58:42;93350.94;;;28.18;69.93
15568;BME280;7885;42.596;23.044;2023-07-13T08:01:09;93334.00;;;28.32;67.70
15568;BME280;7885;42.596;23.044;2023-07-13T08:03:36;93334.09;;;28.43;63.67
15568;BME280;7885;42.596;23.044;2023-07-13T08:06:03;93328.03;;;28.50;58.88
15568;BME280;7885;42.596;23.044;2023-07-13T08:08:30;93326.81;;;28.63;62.12
15568;BME280;7885;42.596;23.044;2023-07-13T08:11:02;93289.06;;;28.52;59.46
15568;BME280;7885;42.596;23.044;2023-07-13T08:13:29;93325.97;;;28.88;59.91
15568;BME280;7885;42.596;23.044;2023-07-13T08:15:56;93315.56;;;28.94;59.77
15568;BME280;7885;42.596;23.044;2023-07-13T08:18:23;93306.88;;;28.92;58.54
15568;BME280;7885;42.596;23.044;2023-07-13T08:20:50;93314.06;;;29.04;57.89
15568;BME280;7885;42.596;23.044;2023-07-13T08:23:17;93312.25;;;28.95;57.17
15568;BME280;7885;42.596;23.044;2023-07-13T08:25:50;93312.56;;;29.03;60.02
15568;BME280;7885;42.596;23.044;2023-07-13T08:28:19;93313.53;;;29.00;56.30
15568;BME280;7885;42.596;23.044;2023-07-13T08:30:46;93299.25;;;28.98;57.63
15568;BME280;7885;42.596;23.044;2023-07-13T08:33:14;93314.09;;;29.09;56.16
15568;BME280;7885;42.596;23.044;2023-07-13T08:35:41;93293.19;;;29.05;57.38
15568;BME280;7885;42.596;23.044;2023-07-13T08:38:08;93317.69;;;29.21;55.95
15568;BME280;7885;42.596;23.044;2023-07-13T08:40:35;93303.97;;;29.23;53.07
15568;BME280;7885;42.596;23.044;2023-07-13T08:43:01;93320.31;;;29.30;56.53
15568;BME280;7885;42.596;23.044;2023-07-13T08:45:37;93314.72;;;29.30;52.11
15568;BME280;7885;42.596;23.044;2023-07-13T08:48:11;93308.09;;;29.33;51.21
15568;BME280;7885;42.596;23.044;2023-07-13T08:50:46;93324.94;;;29.44;55.09
15568;BME280;7885;42.596;23.044;2023-07-13T08:53:15;93311.91;;;29.36;53.52
15568;BME280;7885;42.596;23.044;2023-07-13T08:55:43;93315.50;;;29.42;51.79
15568;BME280;7885;42.596;23.044;2023-07-13T08:58:12;93321.88;;;29.42;50.11
15568;BME280;7885;42.596;23.044;2023-07-13T09:00:48;93316.25;;;29.48;51.94
15568;BME280;7885;42.596;23.044;2023-07-13T09:03:23;93334.66;;;29.66;53.13
15568;BME280;7885;42.596;23.044;2023-07-13T09:05:54;93340.31;;;29.71;52.18
15568;BME280;7885;42.596;23.044;2023-07-13T09:08:34;93338.78;;;29.76;51.57
15568;BME280;7885;42.596;23.044;2023-07-13T09:11:10;93330.69;;;29.89;52.48
15568;BME280;7885;42.596;23.044;2023-07-13T09:13:57;93343.44;;;30.12;52.45
15568;BME280;7885;42.596;23.044;2023-07-13T09:16:29;93323.78;;;30.12;51.97
15568;BME280;7885;42.596;23.044;2023-07-13T09:19:00;93333.22;;;30.31;51.73
15568;BME280;7885;42.596;23.044;2023-07-13T09:21:31;93325.06;;;30.44;54.46
15568;BME280;7885;42.596;23.044;2023-07-13T09:24:01;93337.81;;;30.68;50.10
15568;BME280;7885;42.596;23.044;2023-07-13T09:26:29;93314.84;;;30.52;46.62
15568;BME280;7885;42.596;23.044;2023-07-13T09:29:06;93338.81;;;30.76;47.10
15568;BME280;7885;42.596;23.044;2023-07-13T09:31:42;93342.88;;;30.86;47.37
15568;BME280;7885;42.596;23.044;2023-07-13T09:34:18;93343.63;;;31.09;46.40
15568;BME280;7885;42.596;23.044;2023-07-13T09:36:46;93342.00;;;31.30;46.03
15568;BME280;7885;42.596;23.044;2023-07-13T09:39:27;93334.03;;;31.39;48.47
15568;BME280;7885;42.596;23.044;2023-07-13T09:42:01;93337.56;;;31.45;44.46
15568;BME280;7885;42.596;23.044;2023-07-13T09:44:34;93349.81;;;31.48;43.44
15568;BME280;7885;42.596;23.044;2023-07-13T09:47:03;93334.97;;;31.59;42.78
15568;BME280;7885;42.596;23.044;2023-07-13T09:49:41;93318.53;;;31.74;44.20
15568;BME280;7885;42.596;23.044;2023-07-13T09:52:11;93314.75;;;32.01;45.80
15568;BME280;7885;42.596;23.044;2023-07-13T09:54:39;93317.09;;;32.32;44.08
15568;BME280;7885;42.596;23.044;2023-07-13T09:57:13;93317.13;;;32.57;43.56
15568;BME280;7885;42.596;23.044;2023-07-13T09:59:43;93311.28;;;32.49;42.14
15568;BME280;7885;42.596;23.044;2023-07-13T10:02:27;93306.78;;;32.40;41.17
15568;BME280;7885;42.596;23.044;2023-07-13T10:04:57;93302.56;;;32.52;42.69
15568;BME280;7885;42.596;23.044;2023-07-13T10:07:24;93297.91;;;32.61;42.42
15568;BME280;7885;42.596;23.044;2023-07-13T10:09:52;93279.16;;;32.63;45.54
15568;BME280;7885;42.596;23.044;2023-07-13T10:12:22;93289.16;;;32.88;42.56
15568;BME280;7885;42.596;23.044;2023-07-13T10:14:52;93289.44;;;32.85;39.79
15568;BME280;7885;42.596;23.044;2023-07-13T10:17:30;93258.66;;;32.63;40.81
15568;BME280;7885;42.596;23.044;2023-07-13T10:19:59;93267.00;;;32.74;40.56
15568;BME280;7885;42.596;23.044;2023-07-13T10:22:36;93290.84;;;32.97;41.64
15568;BME280;7885;42.596;23.044;2023-07-13T10:35:29;93280.03;;;33.01;37.60
15568;BME280;7885;42.596;23.044;2023-07-13T10:38:00;93275.28;;;33.15;38.00
15568;BME280;7885;42.596;23.044;2023-07-13T10:40:35;93273.09;;;33.26;37.75
15568;BME280;7885;42.596;23.044;2023-07-13T10:43:07;93263.47;;;33.35;38.44
15568;BME280;7885;42.596;23.044;2023-07-13T10:45:36;93275.97;;;33.39;38.95
15568;BME280;7885;42.596;23.044;2023-07-13T10:48:05;93259.34;;;33.17;35.74
15568;BME280;7885;42.596;23.044;2023-07-13T10:50:35;93227.28;;;32.96;36.49
15568;BME280;7885;42.596;23.044;2023-07-13T10:53:18;93262.69;;;33.34;37.91
15568;BME280;7885;42.596;23.044;2023-07-13T10:55:56;93279.94;;;33.49;36.02
15568;BME280;7885;42.596;23.044;2023-07-13T10:58:29;93225.63;;;33.25;40.56
15568;BME280;7885;42.596;23.044;2023-07-13T11:04:20;93240.47;;;33.68;39.07
15568;BME280;7885;42.596;23.044;2023-07-13T11:06:52;93227.38;;;33.84;37.06
15568;BME280;7885;42.596;23.044;2023-07-13T11:09:34;93243.06;;;33.98;37.72
15568;BME280;7885;42.596;23.044;2023-07-13T11:12:07;93236.81;;;33.86;36.31
15568;BME280;7885;42.596;23.044;2023-07-13T11:15:03;93233.22;;;33.86;34.92
15568;BME280;7885;42.596;23.044;2023-07-13T11:17:48;93222.84;;;33.94;37.61
15568;BME280;7885;42.596;23.044;2023-07-13T11:20:33;93233.97;;;34.05;37.41
15568;BME280;7885;42.596;23.044;2023-07-13T11:23:30;93223.22;;;33.72;32.29
15568;BME280;7885;42.596;23.044;2023-07-13T11:25:58;93233.44;;;33.75;35.33
15568;BME280;7885;42.596;23.044;2023-07-13T11:28:30;93215.41;;;33.78;32.49
15568;BME280;7885;42.596;23.044;2023-07-13T11:31:14;93210.63;;;33.86;37.89
15568;BME280;7885;42.596;23.044;2023-07-13T11:33:56;93221.19;;;33.85;34.69
15568;BME280;7885;42.596;23.044;2023-07-13T11:36:30;93210.63;;;33.86;34.43
15568;BME280;7885;42.596;23.044;2023-07-13T11:39:03;93209.78;;;33.91;32.41
15568;BME280;7885;42.596;23.044;2023-07-13T11:41:34;93210.56;;;33.91;30.73
15568;BME280;7885;42.596;23.044;2023-07-13T11:44:06;93217.63;;;33.98;30.87
15568;BME280;7885;42.596;23.044;2023-07-13T11:46:33;93213.94;;;34.03;30.77
15568;BME280;7885;42.596;23.044;2023-07-13T11:49:04;93207.25;;;34.06;33.88
15568;BME280;7885;42.596;23.044;2023-07-13T11:51:34;93216.88;;;33.97;33.24
15568;BME280;7885;42.596;23.044;2023-07-13T12:00:45;93187.75;;;34.34;33.07
15568;BME280;7885;42.596;23.044;2023-07-13T12:03:13;93180.47;;;34.52;34.17
15568;BME280;7885;42.596;23.044;2023-07-13T12:06:00;93192.16;;;34.75;28.42
15568;BME280;7885;42.596;23.044;2023-07-13T12:08:28;93186.50;;;34.75;29.16
15568;BME280;7885;42.596;23.044;2023-07-13T12:11:05;93191.72;;;34.71;33.60
15568;BME280;7885;42.596;23.044;2023-07-13T12:13:38;93201.78;;;34.53;33.02
15568;BME280;7885;42.596;23.044;2023-07-13T12:16:12;93164.72;;;34.30;34.40
15568;BME280;7885;42.596;23.044;2023-07-13T12:18:42;93184.94;;;34.47;31.54
15568;BME280;7885;42.596;23.044;2023-07-13T12:21:16;93172.09;;;34.60;31.11
15568;BME280;7885;42.596;23.044;2023-07-13T12:23:46;93172.88;;;34.73;31.53
15568;BME280;7885;42.596;23.044;2023-07-13T12:26:15;93168.63;;;34.54;32.09
15568;BME280;7885;42.596;23.044;2023-07-13T12:28:46;93178.41;;;34.39;34.78
15568;BME280;7885;42.596;23.044;2023-07-13T12:31:29;93166.22;;;34.31;32.79
15568;BME280;7885;42.596;23.044;2023-07-13T12:33:57;93167.94;;;34.34;31.91
15568;BME280;7885;42.596;23.044;2023-07-13T12:36:26;93157.22;;;34.33;32.63
15568;BME280;7885;42.596;23.044;2023-07-13T12:38:57;93133.59;;;34.17;34.40
15568;BME280;7885;42.596;23.044;2023-07-13T12:41:29;93162.78;;;34.65;32.25
15568;BME280;7885;42.596;23.044;2023-07-13T12:43:56;93130.69;;;34.62;29.52
15568;BME280;7885;42.596;23.044;2023-07-13T12:46:23;93143.19;;;34.80;31.98
15568;BME280;7885;42.596;23.044;2023-07-13T12:48:52;93155.47;;;34.69;31.90
15568;BME280;7885;42.596;23.044;2023-07-13T13:01:28;93130.38;;;34.79;32.40
15568;BME280;7885;42.596;23.044;2023-07-13T13:03:56;93135.16;;;34.71;32.18
15568;BME280;7885;42.596;23.044;2023-07-13T13:06:26;93133.94;;;34.66;32.88
15568;BME280;7885;42.596;23.044;2023-07-13T13:08:56;93132.09;;;34.69;32.91
15568;BME280;7885;42.596;23.044;2023-07-13T13:11:24;93120.03;;;34.81;32.12
15568;BME280;7885;42.596;23.044;2023-07-13T13:13:52;93125.66;;;34.94;31.38
15568;BME280;7885;42.596;23.044;2023-07-13T13:16:21;93126.06;;;34.98;31.25
15568;BME280;7885;42.596;23.044;2023-07-13T13:19:17;93123.78;;;34.97;30.42
15568;BME280;7885;42.596;23.044;2023-07-13T13:21:45;93118.47;;;34.93;30.46
15568;BME280;7885;42.596;23.044;2023-07-13T13:24:13;93108.81;;;34.89;32.87
15568;BME280;7885;42.596;23.044;2023-07-13T13:26:40;93109.00;;;34.91;30.11
15568;BME280;7885;42.596;23.044;2023-07-13T13:29:15;93112.94;;;34.88;31.21
15568;BME280;7885;42.596;23.044;2023-07-13T13:31:43;93112.03;;;34.93;31.89
15568;BME280;7885;42.596;23.044;2023-07-13T13:34:11;93097.75;;;34.65;34.80
15568;BME280;7885;42.596;23.044;2023-07-13T13:36:40;93105.13;;;34.55;36.02
15568;BME280;7885;42.596;23.044;2023-07-13T13:39:19;93108.38;;;34.45;34.50
15568;BME280;7885;42.596;23.044;2023-07-13T13:41:46;93091.44;;;34.45;34.35
15568;BME280;7885;42.596;23.044;2023-07-13T13:44:15;93071.44;;;34.43;33.59
15568;BME280;7885;42.596;23.044;2023-07-13T13:46:43;93074.03;;;34.41;33.14
15568;BME280;7885;42.596;23.044;2023-07-13T13:49:14;93100.13;;;34.74;34.20